Terminal Aerodrome Forecast
Issued by NWS Corpus Christi, TX

Home | Current Version | Previous Version | Text Only | Print | Product List | Glossary On
Versions: 1 2 3 4 5 6 7 8 9 10 11 12 13 14 15 16 17 18
000
FTUS44 KCRP 281735
TAFVCT
TAF
KVCT 281735Z 2818/2918 14017G25KT P6SM FEW025 SCT035
      TEMPO 2818/2822 BKN025
     FM290400 16014KT P6SM -SHRA BKN020 OVC100 PROB30 2909/2915
      VRB18G33KT 3SM TSRA BKN011CB OVC020
     FM291500 VRB06KT P6SM VCSH BKN025=

USA.gov is the U.S. government's official web portal to all federal, state and local government web resources and services.